createdAt,value
2023-01-18T00:00:38.043Z,5.97
2023-01-18T00:03:08.679Z,5.68
2023-01-18T00:05:39.895Z,6.20
2023-01-18T00:08:08.004Z,5.88
2023-01-18T00:10:37.636Z,5.57
2023-01-18T00:13:06.495Z,6.40
2023-01-18T00:15:35.375Z,6.07
2023-01-18T00:18:03.577Z,6.13
2023-01-18T00:20:32.665Z,6.88
2023-01-18T00:23:02.027Z,5.93
2023-01-18T00:25:31.352Z,6.15
2023-01-18T00:28:00.567Z,5.13
2023-01-18T00:30:29.563Z,5.85
2023-01-18T00:32:59.997Z,5.93
2023-01-18T00:35:28.215Z,5.70
2023-01-18T00:37:56.096Z,4.97
2023-01-18T00:40:28.351Z,5.95
2023-01-18T00:43:13.800Z,5.30
2023-01-18T00:45:43.543Z,5.40
2023-01-18T00:48:11.518Z,5.28
2023-01-18T00:50:39.382Z,5.00
2023-01-18T00:53:07.273Z,5.65
2023-01-18T00:55:35.135Z,4.72
2023-01-18T00:58:02.999Z,5.30
2023-01-18T01:00:30.949Z,5.30
2023-01-18T01:03:01.106Z,4.78
2023-01-18T01:05:47.671Z,5.28
2023-01-18T01:08:21.617Z,5.53
2023-01-18T01:10:51.226Z,5.43
2023-01-18T01:13:39.564Z,5.95
2023-01-18T01:16:25.890Z,6.15
2023-01-18T01:19:13.370Z,5.35
2023-01-18T01:21:59.718Z,5.78
2023-01-18T01:24:45.611Z,5.45
2023-01-18T01:27:14.152Z,5.57
2023-01-18T01:29:42.371Z,5.70
2023-01-18T01:32:10.579Z,6.45
2023-01-18T01:34:40.035Z,6.00
2023-01-18T01:37:08.061Z,6.05
2023-01-18T01:39:35.887Z,6.00
2023-01-18T01:42:03.782Z,5.47
2023-01-18T01:44:46.050Z,5.95
2023-01-18T01:47:20.983Z,6.38
2023-01-18T01:49:54.946Z,6.93
2023-01-18T01:52:25.720Z,5.50
2023-01-18T01:54:59.225Z,6.07
2023-01-18T01:57:32.692Z,6.00
2023-01-18T02:00:01.925Z,5.88
2023-01-18T02:02:41.804Z,6.10
2023-01-18T02:05:14.951Z,5.55
2023-01-18T02:10:11.777Z,6.30
2023-01-18T02:12:42.337Z,5.90
2023-01-18T02:15:11.715Z,6.40
2023-01-18T02:17:56.743Z,6.63
2023-01-18T02:20:59.987Z,6.15
2023-01-18T02:23:36.589Z,6.03
2023-01-18T02:26:32.934Z,5.85
2023-01-18T02:29:11.144Z,5.80
2023-01-18T02:31:47.434Z,6.78
2023-01-18T02:34:23.923Z,5.93
2023-01-18T02:36:59.648Z,6.28
2023-01-18T02:39:38.280Z,6.15
2023-01-18T02:42:33.736Z,6.30
2023-01-18T02:45:22.978Z,6.50
2023-01-18T02:47:52.775Z,6.20
2023-01-18T02:50:26.596Z,5.88
2023-01-18T02:52:55.181Z,6.18
2023-01-18T02:55:38.127Z,6.47
2023-01-18T02:58:12.065Z,6.25
2023-01-18T03:00:45.890Z,6.13
2023-01-18T03:03:16.066Z,5.53
2023-01-18T03:05:47.271Z,6.05
2023-01-18T03:08:19.976Z,5.90
2023-01-18T03:10:59.912Z,6.03
2023-01-18T03:13:37.860Z,5.90
2023-01-18T03:16:13.991Z,5.97
2023-01-18T03:19:01.742Z,6.35
2023-01-18T03:21:38.108Z,6.00
2023-01-18T03:24:09.131Z,5.63
2023-01-18T03:26:40.759Z,6.13
2023-01-18T03:29:26.133Z,5.95
2023-01-18T03:32:17.893Z,6.28
2023-01-18T03:34:52.759Z,6.47
2023-01-18T03:37:24.429Z,6.80
2023-01-18T03:39:58.281Z,5.40
2023-01-18T03:42:30.179Z,5.85
2023-01-18T03:45:05.894Z,6.00
2023-01-18T03:47:35.684Z,5.35
2023-01-18T03:50:03.803Z,5.80
2023-01-18T03:52:40.766Z,5.78
2023-01-18T03:55:16.739Z,4.82
2023-01-18T03:57:50.190Z,5.43
2023-01-18T04:00:18.930Z,5.57
2023-01-18T04:02:49.980Z,5.35
2023-01-18T04:05:18.785Z,5.78
2023-01-18T04:07:46.759Z,5.97
2023-01-18T04:10:15.078Z,5.03
2023-01-18T04:12:43.051Z,4.68
2023-01-18T04:15:11.999Z,4.93
2023-01-18T04:17:40.314Z,4.30
2023-01-18T04:20:11.429Z,4.82
2023-01-18T04:22:39.478Z,4.55
2023-01-18T04:25:08.085Z,3.83
2023-01-18T04:27:35.943Z,4.40
2023-01-18T04:30:06.296Z,3.72
2023-01-18T04:32:34.197Z,4.20
2023-01-18T04:35:02.049Z,4.35
2023-01-18T04:37:31.319Z,4.35
2023-01-18T04:39:59.191Z,4.68
2023-01-18T04:42:27.222Z,3.88
2023-01-18T04:44:55.075Z,4.40
2023-01-18T04:47:23.068Z,4.13
2023-01-18T04:49:50.934Z,3.58
2023-01-18T04:52:19.313Z,4.00
2023-01-18T04:54:48.702Z,3.65
2023-01-18T04:57:16.692Z,3.60
2023-01-18T04:59:45.880Z,3.65
2023-01-18T05:02:15.262Z,3.53
2023-01-18T05:04:43.561Z,3.17
2023-01-18T05:07:11.719Z,3.22
2023-01-18T05:09:39.593Z,3.17
2023-01-18T05:12:09.164Z,3.08
2023-01-18T05:14:37.033Z,3.15
2023-01-18T05:17:04.936Z,2.63
2023-01-18T05:19:32.908Z,3.33
2023-01-18T05:22:00.800Z,2.75
2023-01-18T05:24:30.031Z,3.05
2023-01-18T05:26:58.087Z,3.08
2023-01-18T05:29:27.352Z,2.90
2023-01-18T05:31:55.260Z,3.28
2023-01-18T05:34:23.137Z,2.80
2023-01-18T05:36:51.075Z,3.15
2023-01-18T05:39:18.899Z,3.10
2023-01-18T05:41:46.776Z,3.80
2023-01-18T05:44:14.736Z,3.55
2023-01-18T05:46:44.071Z,3.28
2023-01-18T05:49:11.935Z,3.70
2023-01-18T05:51:39.841Z,3.50
2023-01-18T05:54:07.789Z,3.35
2023-01-18T05:56:35.903Z,4.13
2023-01-18T05:59:03.749Z,4.10
2023-01-18T06:01:31.649Z,5.15
2023-01-18T06:04:01.127Z,4.40
2023-01-18T06:06:29.007Z,5.05
2023-01-18T06:08:56.907Z,4.65
2023-01-18T06:11:24.755Z,4.53
2023-01-18T06:13:53.318Z,4.60
2023-01-18T06:16:21.230Z,4.50
2023-01-18T06:18:49.087Z,4.10
2023-01-18T06:21:18.919Z,4.35
2023-01-18T06:23:46.848Z,4.60
2023-01-18T06:26:14.842Z,4.68
2023-01-18T06:28:42.726Z,4.78
2023-01-18T06:31:11.558Z,4.45
2023-01-18T06:33:39.615Z,5.22
2023-01-18T06:36:07.975Z,4.43
2023-01-18T06:38:37.233Z,4.88
2023-01-18T06:41:05.198Z,4.60
2023-01-18T06:43:33.110Z,4.78
2023-01-18T06:46:01.131Z,4.63
2023-01-18T06:48:29.839Z,4.05
2023-01-18T06:50:59.013Z,4.63
2023-01-18T06:53:27.368Z,3.75
2023-01-18T06:55:58.268Z,3.80
2023-01-18T06:58:27.728Z,4.30
2023-01-18T07:00:56.334Z,3.95
2023-01-18T07:03:24.460Z,3.60
2023-01-18T07:05:54.089Z,4.38
2023-01-18T07:08:22.493Z,4.03
2023-01-18T07:10:52.558Z,3.45
2023-01-18T07:13:22.233Z,4.25
2023-01-18T07:15:54.723Z,4.30
2023-01-18T07:18:23.018Z,3.53
2023-01-18T07:20:57.813Z,3.40
2023-01-18T07:23:26.028Z,4.10
2023-01-18T07:26:04.628Z,4.38
2023-01-18T07:28:36.160Z,3.97
2023-01-18T07:31:06.193Z,3.72
2023-01-18T07:33:34.039Z,3.65
2023-01-18T07:36:04.937Z,3.90
2023-01-18T07:38:33.815Z,3.08
2023-01-18T07:41:03.287Z,3.38
2023-01-18T07:43:33.521Z,2.95
2023-01-18T07:46:03.888Z,3.10
2023-01-18T07:48:32.608Z,3.20
2023-01-18T07:51:02.853Z,2.70
2023-01-18T07:53:31.883Z,2.58
2023-01-18T07:56:00.805Z,2.35
2023-01-18T07:58:29.052Z,2.95
2023-01-18T08:01:03.870Z,2.53
2023-01-18T08:03:31.941Z,2.60
2023-01-18T08:06:00.712Z,2.40
2023-01-18T08:08:29.872Z,2.90
2023-01-18T08:10:59.405Z,3.08
2023-01-18T08:13:28.325Z,2.72
2023-01-18T08:16:00.131Z,2.90
2023-01-18T08:18:28.178Z,3.17
2023-01-18T08:20:56.615Z,3.13
2023-01-18T08:23:24.611Z,2.35
2023-01-18T08:25:52.997Z,3.25
2023-01-18T08:28:20.964Z,2.65
2023-01-18T08:30:49.933Z,2.85
2023-01-18T08:33:19.251Z,2.80
2023-01-18T08:35:48.717Z,2.70
2023-01-18T08:38:17.735Z,3.25
2023-01-18T08:40:45.720Z,3.67
2023-01-18T08:43:13.663Z,3.00
2023-01-18T08:45:41.524Z,2.97
2023-01-18T08:48:11.866Z,2.53
2023-01-18T08:50:42.923Z,2.45
2023-01-18T08:53:10.866Z,3.38
2023-01-18T08:55:40.355Z,2.97
2023-01-18T08:58:08.597Z,2.55
2023-01-18T09:00:36.413Z,2.85
2023-01-18T09:03:06.795Z,2.50
2023-01-18T09:05:36.725Z,3.08
2023-01-18T09:08:06.298Z,3.20
2023-01-18T09:10:37.468Z,3.22
2023-01-18T09:13:05.854Z,3.20
2023-01-18T09:15:34.260Z,3.72
2023-01-18T09:18:06.126Z,2.63
2023-01-18T09:20:35.963Z,3.38
2023-01-18T09:23:09.163Z,2.83
2023-01-18T09:28:06.480Z,3.40
2023-01-18T09:30:35.908Z,3.25
2023-01-18T09:33:03.874Z,3.38
2023-01-18T09:35:33.037Z,3.25
2023-01-18T09:38:01.029Z,3.63
2023-01-18T09:40:43.044Z,3.33
2023-01-18T09:43:17.962Z,3.05
2023-01-18T09:45:48.838Z,3.58
2023-01-18T09:48:30.704Z,3.47
2023-01-18T09:51:02.662Z,3.83
2023-01-18T09:53:45.432Z,3.58
2023-01-18T09:56:19.688Z,3.42
2023-01-18T09:58:58.218Z,3.40
2023-01-18T10:01:31.664Z,3.72
2023-01-18T10:04:03.994Z,3.55
2023-01-18T10:06:38.152Z,4.15
2023-01-18T10:09:12.976Z,3.65
2023-01-18T10:11:48.095Z,3.85
2023-01-18T10:14:23.885Z,3.65
2023-01-18T10:16:56.956Z,3.72
2023-01-18T10:19:29.006Z,3.83
2023-01-18T10:22:06.245Z,3.83
2023-01-18T10:24:46.248Z,3.75
2023-01-18T10:27:54.170Z,3.88
2023-01-18T10:30:48.861Z,3.85
2023-01-18T10:33:23.240Z,4.28
2023-01-18T10:35:55.606Z,4.32
2023-01-18T10:38:28.376Z,4.70
2023-01-18T10:40:58.947Z,3.55
2023-01-18T10:43:29.235Z,3.95
2023-01-18T10:45:59.272Z,3.67
2023-01-18T10:48:30.938Z,3.65
2023-01-18T10:51:01.036Z,3.20
2023-01-18T10:53:34.243Z,3.42
2023-01-18T10:58:35.882Z,3.00
2023-01-18T11:01:06.161Z,3.55
2023-01-18T11:03:47.207Z,3.40
2023-01-18T11:06:17.135Z,3.03
2023-01-18T11:08:45.237Z,3.15
2023-01-18T11:11:22.424Z,3.45
2023-01-18T11:13:53.249Z,2.72
2023-01-18T11:16:23.744Z,2.97
2023-01-18T11:19:17.912Z,2.40
2023-01-18T11:21:50.048Z,2.83
2023-01-18T11:24:24.869Z,3.05
2023-01-18T11:26:57.384Z,2.90
2023-01-18T11:29:28.789Z,2.77
2023-01-18T11:32:03.022Z,3.35
2023-01-18T11:34:33.794Z,3.00
2023-01-18T11:37:02.599Z,2.75
2023-01-18T11:39:33.668Z,2.80
2023-01-18T11:42:25.673Z,2.60
2023-01-18T11:45:14.186Z,2.75
2023-01-18T11:47:55.223Z,2.60
2023-01-18T11:50:35.215Z,2.97
2023-01-18T11:53:16.308Z,3.55
2023-01-18T11:55:55.900Z,2.88
2023-01-18T11:58:28.363Z,2.55
2023-01-18T12:01:06.203Z,3.05
2023-01-18T12:03:50.240Z,3.50
2023-01-18T12:06:28.890Z,2.97
2023-01-18T12:09:04.972Z,3.25
2023-01-18T12:12:09.768Z,3.42
2023-01-18T12:14:57.320Z,3.08
2023-01-18T12:17:39.448Z,3.75
2023-01-18T12:20:24.104Z,3.35
2023-01-18T12:23:11.934Z,4.18
2023-01-18T12:26:12.713Z,3.05
2023-01-18T12:28:56.456Z,3.78
2023-01-18T12:34:05.818Z,3.33
2023-01-18T12:36:56.475Z,3.03
2023-01-18T12:39:47.314Z,3.53
2023-01-18T12:42:23.126Z,3.60
2023-01-18T12:45:04.121Z,2.97
2023-01-18T12:47:39.511Z,3.47
2023-01-18T12:50:18.830Z,3.05
2023-01-18T12:52:53.024Z,3.35
2023-01-18T12:55:25.616Z,3.03
2023-01-18T12:57:56.439Z,3.20
2023-01-18T13:00:31.420Z,3.20
2023-01-18T13:02:59.832Z,2.95
2023-01-18T13:05:35.990Z,2.83
2023-01-18T13:08:11.802Z,2.88
2023-01-18T13:10:40.079Z,2.88
2023-01-18T13:13:13.039Z,2.90
2023-01-18T13:15:49.731Z,3.40
2023-01-18T13:18:24.113Z,3.00
2023-01-18T13:21:09.817Z,2.80
2023-01-18T13:23:52.572Z,3.53
2023-01-18T13:26:29.455Z,3.70
2023-01-18T13:29:17.376Z,3.75
2023-01-18T13:31:45.997Z,4.10
2023-01-18T13:34:28.618Z,3.97
2023-01-18T13:37:13.111Z,3.63
2023-01-18T13:39:48.844Z,4.28
2023-01-18T13:42:26.596Z,4.30
2023-01-18T13:45:20.535Z,4.47
2023-01-18T13:48:00.630Z,4.40
2023-01-18T13:50:48.775Z,4.50
2023-01-18T13:53:27.187Z,4.57
2023-01-18T13:56:27.541Z,4.88
2023-01-18T13:58:59.562Z,4.20
2023-01-18T14:01:32.493Z,4.25
2023-01-18T14:04:22.530Z,4.22
2023-01-18T14:06:52.334Z,4.82
2023-01-18T14:09:41.241Z,4.80
2023-01-18T14:12:11.709Z,4.25
2023-01-18T14:14:55.530Z,4.38
2023-01-18T14:17:25.477Z,4.63
2023-01-18T14:20:29.142Z,4.88
2023-01-18T14:23:09.223Z,4.63
2023-01-18T14:25:54.332Z,5.38
2023-01-18T14:28:29.075Z,5.07
2023-01-18T14:30:59.697Z,4.55
2023-01-18T14:33:33.549Z,4.80
2023-01-18T14:36:02.705Z,4.53
2023-01-18T14:38:31.292Z,5.05
2023-01-18T14:41:05.004Z,5.05
2023-01-18T14:43:37.014Z,4.50
2023-01-18T14:46:08.517Z,4.63
2023-01-18T14:48:46.891Z,4.50
2023-01-18T14:51:18.241Z,4.20
2023-01-18T14:53:48.607Z,3.78
2023-01-18T14:56:20.568Z,4.10
2023-01-18T14:58:54.780Z,3.58
2023-01-18T15:01:31.813Z,3.35
2023-01-18T15:04:02.016Z,4.13
2023-01-18T15:06:39.020Z,3.92
2023-01-18T15:09:08.920Z,3.67
2023-01-18T15:11:38.443Z,3.38
2023-01-18T15:14:15.325Z,3.30
2023-01-18T15:16:43.729Z,3.45
2023-01-18T15:19:18.789Z,3.40
2023-01-18T15:21:47.030Z,11.00
2023-01-18T15:24:18.515Z,7.05
2023-01-18T15:26:51.295Z,4.97
2023-01-18T15:29:24.493Z,3.83
2023-01-18T15:31:55.976Z,3.30
2023-01-18T15:34:31.819Z,3.92
2023-01-18T15:37:02.210Z,4.03
2023-01-18T15:39:32.392Z,4.15
2023-01-18T15:42:06.181Z,3.97
2023-01-18T15:44:43.981Z,3.72
2023-01-18T15:47:17.934Z,4.00
2023-01-18T15:49:49.650Z,3.70
2023-01-18T15:52:34.848Z,3.92
2023-01-18T15:55:06.625Z,4.88
2023-01-18T15:57:37.028Z,5.13
2023-01-18T16:00:08.494Z,4.75
2023-01-18T16:02:43.118Z,4.95
2023-01-18T16:05:22.767Z,4.97
2023-01-18T16:08:01.011Z,5.15
2023-01-18T16:10:33.197Z,4.78
2023-01-18T16:13:37.690Z,4.40
2023-01-18T16:16:21.284Z,4.88
2023-01-18T16:19:01.462Z,4.20
2023-01-18T16:21:41.899Z,5.05
2023-01-18T16:24:31.090Z,4.68
2023-01-18T16:27:01.913Z,4.50
2023-01-18T16:29:29.824Z,4.68
2023-01-18T16:32:29.095Z,5.03
2023-01-18T16:34:59.270Z,4.97
2023-01-18T16:37:27.360Z,5.25
2023-01-18T16:39:55.410Z,5.28
2023-01-18T16:42:36.922Z,5.07
2023-01-18T16:45:06.851Z,4.18
2023-01-18T16:47:36.084Z,5.25
2023-01-18T16:50:08.109Z,4.95
2023-01-18T16:52:35.936Z,4.63
2023-01-18T16:55:03.794Z,5.28
2023-01-18T16:57:32.831Z,5.60
2023-01-18T17:00:00.773Z,4.95
2023-01-18T17:02:28.721Z,5.72
2023-01-18T17:04:58.010Z,6.18
2023-01-18T17:07:25.893Z,5.93
2023-01-18T17:09:53.769Z,5.85
2023-01-18T17:12:21.617Z,6.65
2023-01-18T17:14:49.468Z,5.90
2023-01-18T17:17:17.314Z,5.85
2023-01-18T17:19:45.299Z,5.80
2023-01-18T17:22:14.499Z,6.95
2023-01-18T17:24:42.345Z,6.75
2023-01-18T17:27:14.661Z,6.20
2023-01-18T17:29:42.504Z,6.20
2023-01-18T17:32:13.045Z,5.85
2023-01-18T17:34:40.912Z,6.30
2023-01-18T17:37:08.924Z,5.00
2023-01-18T17:39:49.677Z,6.40
2023-01-18T17:42:22.834Z,5.88
2023-01-18T17:45:02.681Z,5.95
2023-01-18T17:49:58.505Z,5.30
2023-01-18T17:52:27.278Z,6.18
2023-01-18T17:54:56.574Z,5.18
2023-01-18T17:57:24.458Z,5.50
2023-01-18T17:59:55.629Z,5.45
2023-01-18T18:02:24.099Z,5.05
2023-01-18T18:04:52.456Z,5.47
2023-01-18T18:07:20.381Z,5.15
2023-01-18T18:09:48.302Z,5.35
2023-01-18T18:12:17.671Z,5.68
2023-01-18T18:14:45.604Z,5.88
2023-01-18T18:17:13.515Z,6.40
2023-01-18T18:19:41.425Z,5.70
2023-01-18T18:22:09.326Z,6.35
2023-01-18T18:24:37.180Z,5.47
2023-01-18T18:27:05.215Z,6.95
2023-01-18T18:29:36.070Z,6.35
2023-01-18T18:32:05.302Z,6.15
2023-01-18T18:34:33.194Z,6.95
2023-01-18T18:37:01.199Z,6.53
2023-01-18T18:39:29.079Z,6.70
2023-01-18T18:41:57.827Z,6.47
2023-01-18T18:44:26.137Z,6.55
2023-01-18T18:46:55.638Z,7.28
2023-01-18T18:49:23.544Z,6.90
2023-01-18T18:51:51.465Z,6.75
2023-01-18T18:54:19.383Z,7.00
2023-01-18T18:56:47.697Z,6.72
2023-01-18T18:59:15.580Z,7.15
2023-01-18T19:01:43.468Z,6.57
2023-01-18T19:04:12.776Z,8.15
2023-01-18T19:06:40.624Z,7.03
2023-01-18T19:09:08.546Z,7.60
2023-01-18T19:11:39.454Z,7.35
2023-01-18T19:14:07.583Z,7.18
2023-01-18T19:16:36.848Z,8.35
2023-01-18T19:19:04.779Z,7.43
2023-01-18T19:21:34.035Z,7.15
2023-01-18T19:24:01.867Z,7.43
2023-01-18T19:26:29.739Z,7.57
2023-01-18T19:28:57.649Z,7.15
2023-01-18T19:31:25.588Z,7.15
2023-01-18T19:33:56.289Z,7.00
2023-01-18T19:36:24.302Z,7.05
2023-01-18T19:38:59.668Z,6.28
2023-01-18T19:41:30.158Z,5.95
2023-01-18T19:43:58.158Z,7.32
2023-01-18T19:46:26.093Z,7.30
2023-01-18T19:48:58.246Z,6.90
2023-01-18T19:51:26.324Z,6.97
2023-01-18T19:53:56.556Z,7.35
2023-01-18T19:56:25.702Z,6.57
2023-01-18T19:58:53.623Z,6.60
2023-01-18T20:01:35.285Z,7.13
2023-01-18T20:04:05.828Z,5.95
2023-01-18T20:06:34.933Z,6.70
2023-01-18T20:09:12.583Z,6.38
2023-01-18T20:11:46.671Z,7.40
2023-01-18T20:14:14.868Z,7.70
2023-01-18T20:16:44.901Z,8.05
2023-01-18T20:19:14.151Z,8.00
2023-01-18T20:21:42.077Z,7.20
2023-01-18T20:24:11.621Z,8.70
2023-01-18T20:26:41.679Z,7.30
2023-01-18T20:29:10.261Z,7.93
2023-01-18T20:31:39.532Z,7.20
2023-01-18T20:34:08.452Z,7.72
2023-01-18T20:36:36.641Z,8.30
2023-01-18T20:39:05.218Z,9.32
2023-01-18T20:41:34.497Z,9.10
2023-01-18T20:44:02.349Z,9.30
2023-01-18T20:46:30.212Z,9.88
2023-01-18T20:48:58.508Z,8.18
2023-01-18T20:51:26.396Z,9.10
2023-01-18T20:53:54.222Z,9.07
2023-01-18T20:56:30.111Z,9.50
2023-01-18T20:58:59.508Z,9.23
2023-01-18T21:01:32.620Z,8.25
2023-01-18T21:04:01.543Z,7.80
2023-01-18T21:06:29.854Z,8.90
2023-01-18T21:08:59.102Z,8.40
2023-01-18T21:11:27.987Z,7.95
2023-01-18T21:13:56.938Z,9.63
2023-01-18T21:16:27.602Z,8.98
2023-01-18T21:18:56.558Z,9.18
2023-01-18T21:21:24.801Z,8.30
2023-01-18T21:23:52.693Z,8.93
2023-01-18T21:26:20.648Z,9.02
2023-01-18T21:28:48.525Z,9.25
2023-01-18T21:31:16.533Z,9.40
2023-01-18T21:33:45.782Z,8.98
2023-01-18T21:36:15.661Z,8.82
2023-01-18T21:38:43.547Z,9.27
2023-01-18T21:41:28.916Z,8.70
2023-01-18T21:44:14.222Z,9.13
2023-01-18T21:46:46.008Z,8.80
2023-01-18T21:49:41.128Z,9.40
2023-01-18T21:52:32.612Z,8.70
2023-01-18T21:55:00.618Z,9.48
2023-01-18T21:57:28.494Z,8.70
2023-01-18T21:59:56.361Z,8.57
2023-01-18T22:02:24.295Z,9.77
2023-01-18T22:05:00.156Z,8.88
2023-01-18T22:07:30.114Z,9.63
2023-01-18T22:10:05.041Z,8.20
2023-01-18T22:12:38.834Z,8.85
2023-01-18T22:15:07.814Z,8.88
2023-01-18T22:17:35.806Z,9.10
2023-01-18T22:20:05.646Z,9.27
2023-01-18T22:22:33.571Z,9.02
2023-01-18T22:25:02.330Z,9.70
2023-01-18T22:27:30.447Z,9.07
2023-01-18T22:29:58.302Z,8.23
2023-01-18T22:32:26.133Z,8.10
2023-01-18T22:34:54.511Z,8.70
2023-01-18T22:37:25.936Z,9.43
2023-01-18T22:39:53.888Z,9.10
2023-01-18T22:42:21.806Z,8.70
2023-01-18T22:44:49.707Z,9.48
2023-01-18T22:47:17.649Z,8.38
2023-01-18T22:49:45.568Z,8.85
2023-01-18T22:52:13.491Z,9.05
2023-01-18T22:54:42.763Z,9.88
2023-01-18T22:57:10.792Z,8.80
2023-01-18T22:59:38.659Z,8.77
2023-01-18T23:02:06.500Z,9.82
2023-01-18T23:04:34.515Z,8.73
2023-01-18T23:07:02.418Z,7.97
2023-01-18T23:09:30.387Z,8.13
2023-01-18T23:11:59.629Z,7.63
2023-01-18T23:14:44.796Z,8.15
2023-01-18T23:17:31.059Z,7.78
2023-01-18T23:19:58.920Z,7.60
2023-01-18T23:22:27.472Z,7.75
2023-01-18T23:24:55.380Z,7.57
2023-01-18T23:27:24.711Z,7.50
2023-01-18T23:29:56.636Z,8.32
2023-01-18T23:32:27.323Z,7.72
2023-01-18T23:34:55.542Z,8.35
2023-01-18T23:37:24.075Z,6.75
2023-01-18T23:40:09.379Z,7.18
2023-01-18T23:42:56.240Z,7.25
2023-01-18T23:45:41.377Z,7.60
2023-01-18T23:48:27.789Z,6.30
2023-01-18T23:51:12.940Z,6.63
2023-01-18T23:53:58.891Z,7.10
2023-01-18T23:56:27.249Z,7.15
2023-01-18T23:58:57.511Z,6.97
